sensor_id;sensor_type;location;lat;lon;timestamp;P1;durP1;ratioP1;P2;durP2;ratioP2
33327;SDS011;19692;52.998;9.116;2023-12-20T00:01:31;7.73;;;2.67;;
33327;SDS011;19692;52.998;9.116;2023-12-20T00:03:57;17.37;;;3.30;;
33327;SDS011;19692;52.998;9.116;2023-12-20T00:06:23;12.93;;;2.90;;
33327;SDS011;19692;52.998;9.116;2023-12-20T00:08:49;11.97;;;3.03;;
33327;SDS011;19692;52.998;9.116;2023-12-20T00:11:14;11.87;;;3.43;;
33327;SDS011;19692;52.998;9.116;2023-12-20T00:13:40;12.50;;;3.17;;
33327;SDS011;19692;52.998;9.116;2023-12-20T00:16:06;10.23;;;2.90;;
33327;SDS011;19692;52.998;9.116;2023-12-20T00:18:32;12.57;;;2.83;;
33327;SDS011;19692;52.998;9.116;2023-12-20T00:20:58;15.10;;;2.73;;
33327;SDS011;19692;52.998;9.116;2023-12-20T00:23:23;13.60;;;2.97;;
33327;SDS011;19692;52.998;9.116;2023-12-20T00:25:49;11.50;;;3.13;;
33327;SDS011;19692;52.998;9.116;2023-12-20T00:28:15;17.00;;;3.37;;
33327;SDS011;19692;52.998;9.116;2023-12-20T00:30:40;20.13;;;4.10;;
33327;SDS011;19692;52.998;9.116;2023-12-20T00:33:06;15.03;;;3.00;;
33327;SDS011;19692;52.998;9.116;2023-12-20T00:35:32;13.17;;;2.87;;
33327;SDS011;19692;52.998;9.116;2023-12-20T00:37:58;13.90;;;3.83;;
33327;SDS011;19692;52.998;9.116;2023-12-20T00:40:25;16.67;;;3.30;;
33327;SDS011;19692;52.998;9.116;2023-12-20T00:42:51;17.20;;;3.13;;
33327;SDS011;19692;52.998;9.116;2023-12-20T00:45:17;11.33;;;3.60;;
33327;SDS011;19692;52.998;9.116;2023-12-20T00:47:42;15.33;;;3.40;;
33327;SDS011;19692;52.998;9.116;2023-12-20T00:50:10;15.10;;;3.67;;
33327;SDS011;19692;52.998;9.116;2023-12-20T00:52:36;15.73;;;2.77;;
33327;SDS011;19692;52.998;9.116;2023-12-20T00:55:02;13.30;;;3.30;;
33327;SDS011;19692;52.998;9.116;2023-12-20T00:57:29;16.67;;;3.10;;
33327;SDS011;19692;52.998;9.116;2023-12-20T00:59:55;10.40;;;2.93;;
33327;SDS011;19692;52.998;9.116;2023-12-20T01:02:23;14.00;;;3.30;;
33327;SDS011;19692;52.998;9.116;2023-12-20T01:04:48;15.07;;;3.10;;
33327;SDS011;19692;52.998;9.116;2023-12-20T01:07:14;11.93;;;3.40;;
33327;SDS011;19692;52.998;9.116;2023-12-20T01:09:40;15.47;;;3.20;;
33327;SDS011;19692;52.998;9.116;2023-12-20T01:12:05;10.97;;;2.57;;
33327;SDS011;19692;52.998;9.116;2023-12-20T01:14:31;11.40;;;2.60;;
33327;SDS011;19692;52.998;9.116;2023-12-20T01:16:57;10.23;;;2.73;;
33327;SDS011;19692;52.998;9.116;2023-12-20T01:19:23;16.10;;;2.97;;
33327;SDS011;19692;52.998;9.116;2023-12-20T01:21:50;14.40;;;3.33;;
33327;SDS011;19692;52.998;9.116;2023-12-20T01:24:16;13.47;;;2.80;;
33327;SDS011;19692;52.998;9.116;2023-12-20T01:26:41;11.90;;;3.07;;
33327;SDS011;19692;52.998;9.116;2023-12-20T01:29:09;14.23;;;3.03;;
33327;SDS011;19692;52.998;9.116;2023-12-20T01:31:35;8.17;;;2.60;;
33327;SDS011;19692;52.998;9.116;2023-12-20T01:34:00;13.40;;;2.77;;
33327;SDS011;19692;52.998;9.116;2023-12-20T01:36:26;16.23;;;3.17;;
33327;SDS011;19692;52.998;9.116;2023-12-20T01:38:52;16.37;;;3.43;;
33327;SDS011;19692;52.998;9.116;2023-12-20T01:41:17;12.30;;;2.70;;
33327;SDS011;19692;52.998;9.116;2023-12-20T01:43:43;23.97;;;3.57;;
33327;SDS011;19692;52.998;9.116;2023-12-20T01:46:09;9.13;;;3.07;;
33327;SDS011;19692;52.998;9.116;2023-12-20T01:48:35;12.07;;;2.53;;
33327;SDS011;19692;52.998;9.116;2023-12-20T01:51:01;12.70;;;3.40;;
33327;SDS011;19692;52.998;9.116;2023-12-20T01:53:27;14.20;;;2.97;;
33327;SDS011;19692;52.998;9.116;2023-12-20T01:55:54;17.30;;;3.87;;
33327;SDS011;19692;52.998;9.116;2023-12-20T01:58:21;8.97;;;2.60;;
33327;SDS011;19692;52.998;9.116;2023-12-20T02:00:50;15.10;;;3.03;;
33327;SDS011;19692;52.998;9.116;2023-12-20T02:03:17;12.67;;;2.87;;
33327;SDS011;19692;52.998;9.116;2023-12-20T02:05:43;16.80;;;2.77;;
33327;SDS011;19692;52.998;9.116;2023-12-20T02:08:10;12.43;;;2.93;;
33327;SDS011;19692;52.998;9.116;2023-12-20T02:10:37;15.40;;;3.50;;
33327;SDS011;19692;52.998;9.116;2023-12-20T02:13:03;14.30;;;2.80;;
33327;SDS011;19692;52.998;9.116;2023-12-20T02:15:29;14.30;;;3.40;;
33327;SDS011;19692;52.998;9.116;2023-12-20T02:17:56;15.27;;;3.10;;
33327;SDS011;19692;52.998;9.116;2023-12-20T02:20:22;12.87;;;3.03;;
33327;SDS011;19692;52.998;9.116;2023-12-20T02:22:48;15.77;;;3.30;;
33327;SDS011;19692;52.998;9.116;2023-12-20T02:25:14;14.23;;;2.83;;
33327;SDS011;19692;52.998;9.116;2023-12-20T02:27:39;10.87;;;2.97;;
33327;SDS011;19692;52.998;9.116;2023-12-20T02:30:05;12.43;;;2.80;;
33327;SDS011;19692;52.998;9.116;2023-12-20T02:32:31;13.20;;;2.97;;
33327;SDS011;19692;52.998;9.116;2023-12-20T02:34:57;11.43;;;3.20;;
33327;SDS011;19692;52.998;9.116;2023-12-20T02:37:23;11.30;;;2.63;;
33327;SDS011;19692;52.998;9.116;2023-12-20T02:39:49;16.97;;;3.43;;
33327;SDS011;19692;52.998;9.116;2023-12-20T02:42:15;20.47;;;3.70;;
33327;SDS011;19692;52.998;9.116;2023-12-20T02:44:41;15.53;;;3.40;;
33327;SDS011;19692;52.998;9.116;2023-12-20T02:47:07;13.77;;;3.03;;
33327;SDS011;19692;52.998;9.116;2023-12-20T02:49:35;8.83;;;2.90;;
33327;SDS011;19692;52.998;9.116;2023-12-20T02:52:01;10.37;;;2.87;;
33327;SDS011;19692;52.998;9.116;2023-12-20T02:54:27;13.73;;;2.80;;
33327;SDS011;19692;52.998;9.116;2023-12-20T02:56:53;15.43;;;3.73;;
33327;SDS011;19692;52.998;9.116;2023-12-20T02:59:18;13.27;;;2.87;;
33327;SDS011;19692;52.998;9.116;2023-12-20T03:01:45;11.70;;;3.37;;
33327;SDS011;19692;52.998;9.116;2023-12-20T03:04:11;15.43;;;3.00;;
33327;SDS011;19692;52.998;9.116;2023-12-20T03:06:37;11.10;;;3.17;;
33327;SDS011;19692;52.998;9.116;2023-12-20T03:09:03;16.23;;;3.50;;
33327;SDS011;19692;52.998;9.116;2023-12-20T03:11:29;14.17;;;2.70;;
33327;SDS011;19692;52.998;9.116;2023-12-20T03:13:56;13.93;;;3.53;;
33327;SDS011;19692;52.998;9.116;2023-12-20T03:16:22;13.07;;;3.50;;
33327;SDS011;19692;52.998;9.116;2023-12-20T03:18:48;16.27;;;3.37;;
33327;SDS011;19692;52.998;9.116;2023-12-20T03:21:14;12.83;;;3.80;;
33327;SDS011;19692;52.998;9.116;2023-12-20T03:23:40;16.27;;;3.10;;
33327;SDS011;19692;52.998;9.116;2023-12-20T03:26:06;11.13;;;3.47;;
33327;SDS011;19692;52.998;9.116;2023-12-20T03:28:33;20.53;;;3.80;;
33327;SDS011;19692;52.998;9.116;2023-12-20T03:30:59;13.93;;;3.43;;
33327;SDS011;19692;52.998;9.116;2023-12-20T03:33:25;13.10;;;3.70;;
33327;SDS011;19692;52.998;9.116;2023-12-20T03:35:52;12.37;;;3.63;;
33327;SDS011;19692;52.998;9.116;2023-12-20T03:38:18;14.53;;;3.47;;
33327;SDS011;19692;52.998;9.116;2023-12-20T03:40:44;16.13;;;3.33;;
33327;SDS011;19692;52.998;9.116;2023-12-20T03:43:09;13.60;;;3.47;;
33327;SDS011;19692;52.998;9.116;2023-12-20T03:45:35;19.77;;;3.60;;
33327;SDS011;19692;52.998;9.116;2023-12-20T03:48:01;14.87;;;4.03;;
33327;SDS011;19692;52.998;9.116;2023-12-20T03:50:27;22.23;;;4.60;;
33327;SDS011;19692;52.998;9.116;2023-12-20T03:52:53;20.07;;;3.80;;
33327;SDS011;19692;52.998;9.116;2023-12-20T03:55:18;15.40;;;4.07;;
33327;SDS011;19692;52.998;9.116;2023-12-20T03:57:44;15.70;;;4.00;;
33327;SDS011;19692;52.998;9.116;2023-12-20T04:00:10;15.07;;;3.73;;
33327;SDS011;19692;52.998;9.116;2023-12-20T04:02:38;15.63;;;3.80;;
33327;SDS011;19692;52.998;9.116;2023-12-20T04:05:05;12.73;;;4.00;;
33327;SDS011;19692;52.998;9.116;2023-12-20T04:07:32;11.93;;;4.33;;
33327;SDS011;19692;52.998;9.116;2023-12-20T04:09:58;14.30;;;4.40;;
33327;SDS011;19692;52.998;9.116;2023-12-20T04:12:24;14.93;;;4.00;;
33327;SDS011;19692;52.998;9.116;2023-12-20T04:14:51;17.27;;;4.13;;
33327;SDS011;19692;52.998;9.116;2023-12-20T04:17:17;12.00;;;4.23;;
33327;SDS011;19692;52.998;9.116;2023-12-20T04:19:43;15.10;;;5.37;;
33327;SDS011;19692;52.998;9.116;2023-12-20T04:22:09;12.43;;;4.20;;
33327;SDS011;19692;52.998;9.116;2023-12-20T04:24:35;13.30;;;4.33;;
33327;SDS011;19692;52.998;9.116;2023-12-20T04:27:01;16.33;;;4.10;;
33327;SDS011;19692;52.998;9.116;2023-12-20T04:29:27;20.57;;;4.70;;
33327;SDS011;19692;52.998;9.116;2023-12-20T04:31:53;19.37;;;5.30;;
33327;SDS011;19692;52.998;9.116;2023-12-20T04:34:19;13.13;;;4.33;;
33327;SDS011;19692;52.998;9.116;2023-12-20T04:36:45;14.73;;;4.43;;
33327;SDS011;19692;52.998;9.116;2023-12-20T04:39:11;14.47;;;4.10;;
33327;SDS011;19692;52.998;9.116;2023-12-20T04:41:38;15.67;;;4.23;;
33327;SDS011;19692;52.998;9.116;2023-12-20T04:44:04;14.63;;;4.37;;
33327;SDS011;19692;52.998;9.116;2023-12-20T04:46:32;13.33;;;4.40;;
33327;SDS011;19692;52.998;9.116;2023-12-20T04:48:58;16.13;;;4.07;;
33327;SDS011;19692;52.998;9.116;2023-12-20T04:51:25;11.33;;;4.60;;
33327;SDS011;19692;52.998;9.116;2023-12-20T04:53:51;13.87;;;4.20;;
33327;SDS011;19692;52.998;9.116;2023-12-20T04:56:19;13.50;;;4.20;;
33327;SDS011;19692;52.998;9.116;2023-12-20T04:58:45;11.70;;;4.63;;
33327;SDS011;19692;52.998;9.116;2023-12-20T05:01:12;11.77;;;4.47;;
33327;SDS011;19692;52.998;9.116;2023-12-20T05:03:41;15.23;;;4.17;;
33327;SDS011;19692;52.998;9.116;2023-12-20T05:06:07;16.07;;;4.90;;
33327;SDS011;19692;52.998;9.116;2023-12-20T05:08:34;20.03;;;5.03;;
33327;SDS011;19692;52.998;9.116;2023-12-20T05:11:00;16.23;;;4.50;;
33327;SDS011;19692;52.998;9.116;2023-12-20T05:13:26;16.97;;;4.90;;
33327;SDS011;19692;52.998;9.116;2023-12-20T05:15:53;15.17;;;4.50;;
33327;SDS011;19692;52.998;9.116;2023-12-20T05:18:20;16.80;;;5.23;;
33327;SDS011;19692;52.998;9.116;2023-12-20T05:20:46;21.07;;;5.47;;
33327;SDS011;19692;52.998;9.116;2023-12-20T05:23:12;15.60;;;4.90;;
33327;SDS011;19692;52.998;9.116;2023-12-20T05:25:41;14.23;;;4.17;;
33327;SDS011;19692;52.998;9.116;2023-12-20T05:28:07;12.70;;;4.67;;
33327;SDS011;19692;52.998;9.116;2023-12-20T05:30:33;18.23;;;4.23;;
33327;SDS011;19692;52.998;9.116;2023-12-20T05:32:59;13.77;;;5.07;;
33327;SDS011;19692;52.998;9.116;2023-12-20T05:35:24;20.37;;;5.70;;
33327;SDS011;19692;52.998;9.116;2023-12-20T05:37:51;13.33;;;5.77;;
33327;SDS011;19692;52.998;9.116;2023-12-20T05:40:18;14.20;;;5.57;;
33327;SDS011;19692;52.998;9.116;2023-12-20T05:42:44;16.00;;;5.83;;
33327;SDS011;19692;52.998;9.116;2023-12-20T05:45:09;18.10;;;5.60;;
33327;SDS011;19692;52.998;9.116;2023-12-20T05:47:36;16.67;;;5.00;;
33327;SDS011;19692;52.998;9.116;2023-12-20T05:50:02;18.13;;;5.80;;
33327;SDS011;19692;52.998;9.116;2023-12-20T05:52:29;22.60;;;5.80;;
33327;SDS011;19692;52.998;9.116;2023-12-20T05:54:56;16.00;;;5.57;;
33327;SDS011;19692;52.998;9.116;2023-12-20T05:57:26;14.57;;;5.97;;
33327;SDS011;19692;52.998;9.116;2023-12-20T05:59:52;18.27;;;5.57;;
33327;SDS011;19692;52.998;9.116;2023-12-20T06:02:18;17.13;;;7.13;;
33327;SDS011;19692;52.998;9.116;2023-12-20T06:04:44;19.90;;;6.43;;
33327;SDS011;19692;52.998;9.116;2023-12-20T06:07:13;16.70;;;5.33;;
33327;SDS011;19692;52.998;9.116;2023-12-20T06:09:41;12.47;;;5.57;;
33327;SDS011;19692;52.998;9.116;2023-12-20T06:12:07;14.03;;;5.00;;
33327;SDS011;19692;52.998;9.116;2023-12-20T06:14:35;16.80;;;5.83;;
33327;SDS011;19692;52.998;9.116;2023-12-20T06:17:01;16.67;;;6.30;;
33327;SDS011;19692;52.998;9.116;2023-12-20T06:19:27;14.77;;;5.47;;
33327;SDS011;19692;52.998;9.116;2023-12-20T06:21:53;18.00;;;6.63;;
33327;SDS011;19692;52.998;9.116;2023-12-20T06:24:19;14.10;;;5.83;;
33327;SDS011;19692;52.998;9.116;2023-12-20T06:26:46;22.07;;;6.33;;
33327;SDS011;19692;52.998;9.116;2023-12-20T06:29:13;20.10;;;5.80;;
33327;SDS011;19692;52.998;9.116;2023-12-20T06:31:38;20.03;;;6.37;;
33327;SDS011;19692;52.998;9.116;2023-12-20T06:34:04;15.53;;;5.90;;
33327;SDS011;19692;52.998;9.116;2023-12-20T06:36:30;19.93;;;5.33;;
33327;SDS011;19692;52.998;9.116;2023-12-20T06:38:56;16.13;;;5.87;;
33327;SDS011;19692;52.998;9.116;2023-12-20T06:41:22;21.47;;;6.17;;
33327;SDS011;19692;52.998;9.116;2023-12-20T06:43:49;19.17;;;5.97;;
33327;SDS011;19692;52.998;9.116;2023-12-20T06:46:15;15.93;;;5.43;;
33327;SDS011;19692;52.998;9.116;2023-12-20T06:48:42;16.53;;;5.80;;
33327;SDS011;19692;52.998;9.116;2023-12-20T06:51:13;20.97;;;6.20;;
33327;SDS011;19692;52.998;9.116;2023-12-20T06:53:40;20.37;;;6.50;;
33327;SDS011;19692;52.998;9.116;2023-12-20T06:56:06;23.97;;;6.17;;
33327;SDS011;19692;52.998;9.116;2023-12-20T06:58:32;22.47;;;6.37;;
33327;SDS011;19692;52.998;9.116;2023-12-20T07:00:58;22.53;;;6.17;;
33327;SDS011;19692;52.998;9.116;2023-12-20T07:03:24;18.63;;;5.60;;
33327;SDS011;19692;52.998;9.116;2023-12-20T07:05:49;16.23;;;5.77;;
33327;SDS011;19692;52.998;9.116;2023-12-20T07:08:15;20.07;;;6.37;;
33327;SDS011;19692;52.998;9.116;2023-12-20T07:10:41;16.93;;;5.23;;
33327;SDS011;19692;52.998;9.116;2023-12-20T07:13:07;22.83;;;6.03;;
33327;SDS011;19692;52.998;9.116;2023-12-20T07:15:33;21.10;;;6.50;;
33327;SDS011;19692;52.998;9.116;2023-12-20T07:17:59;17.40;;;6.17;;
33327;SDS011;19692;52.998;9.116;2023-12-20T07:20:25;20.53;;;6.63;;
33327;SDS011;19692;52.998;9.116;2023-12-20T07:22:51;25.60;;;6.43;;
33327;SDS011;19692;52.998;9.116;2023-12-20T07:25:17;29.63;;;6.60;;
33327;SDS011;19692;52.998;9.116;2023-12-20T07:27:43;15.57;;;6.43;;
33327;SDS011;19692;52.998;9.116;2023-12-20T07:30:08;20.27;;;6.40;;
33327;SDS011;19692;52.998;9.116;2023-12-20T07:32:35;17.67;;;6.33;;
33327;SDS011;19692;52.998;9.116;2023-12-20T07:35:01;18.07;;;6.23;;
33327;SDS011;19692;52.998;9.116;2023-12-20T07:37:28;19.07;;;6.83;;
33327;SDS011;19692;52.998;9.116;2023-12-20T07:39:53;20.97;;;6.63;;
33327;SDS011;19692;52.998;9.116;2023-12-20T07:42:19;21.50;;;7.60;;
33327;SDS011;19692;52.998;9.116;2023-12-20T07:44:47;25.53;;;9.53;;
33327;SDS011;19692;52.998;9.116;2023-12-20T07:47:12;22.50;;;6.17;;
33327;SDS011;19692;52.998;9.116;2023-12-20T07:49:41;16.97;;;6.90;;
33327;SDS011;19692;52.998;9.116;2023-12-20T07:52:10;21.87;;;7.40;;
33327;SDS011;19692;52.998;9.116;2023-12-20T07:54:35;26.37;;;8.67;;
33327;SDS011;19692;52.998;9.116;2023-12-20T07:57:01;24.33;;;6.57;;
33327;SDS011;19692;52.998;9.116;2023-12-20T07:59:27;18.43;;;6.70;;
33327;SDS011;19692;52.998;9.116;2023-12-20T08:01:53;24.40;;;6.40;;
33327;SDS011;19692;52.998;9.116;2023-12-20T08:04:18;18.00;;;6.23;;
33327;SDS011;19692;52.998;9.116;2023-12-20T08:06:44;19.23;;;6.53;;
33327;SDS011;19692;52.998;9.116;2023-12-20T08:09:10;19.33;;;6.27;;
33327;SDS011;19692;52.998;9.116;2023-12-20T08:11:36;21.07;;;7.63;;
33327;SDS011;19692;52.998;9.116;2023-12-20T08:14:01;20.30;;;7.10;;
33327;SDS011;19692;52.998;9.116;2023-12-20T08:16:27;21.53;;;6.07;;
33327;SDS011;19692;52.998;9.116;2023-12-20T08:18:53;25.43;;;7.00;;
33327;SDS011;19692;52.998;9.116;2023-12-20T08:21:18;23.77;;;6.33;;
33327;SDS011;19692;52.998;9.116;2023-12-20T08:23:47;21.23;;;6.27;;
33327;SDS011;19692;52.998;9.116;2023-12-20T08:26:12;18.87;;;5.77;;
33327;SDS011;19692;52.998;9.116;2023-12-20T08:28:38;17.93;;;6.27;;
33327;SDS011;19692;52.998;9.116;2023-12-20T08:31:04;18.43;;;6.67;;
33327;SDS011;19692;52.998;9.116;2023-12-20T08:33:30;19.43;;;7.57;;
33327;SDS011;19692;52.998;9.116;2023-12-20T08:35:56;24.00;;;6.27;;
33327;SDS011;19692;52.998;9.116;2023-12-20T08:38:21;19.93;;;6.40;;
33327;SDS011;19692;52.998;9.116;2023-12-20T08:40:47;21.53;;;5.83;;
33327;SDS011;19692;52.998;9.116;2023-12-20T08:43:13;20.50;;;6.50;;
33327;SDS011;19692;52.998;9.116;2023-12-20T08:45:39;17.37;;;6.63;;
33327;SDS011;19692;52.998;9.116;2023-12-20T08:48:05;23.63;;;9.00;;
33327;SDS011;19692;52.998;9.116;2023-12-20T08:50:33;16.60;;;5.60;;
33327;SDS011;19692;52.998;9.116;2023-12-20T08:52:59;19.97;;;6.53;;
33327;SDS011;19692;52.998;9.116;2023-12-20T08:55:25;17.57;;;6.17;;
33327;SDS011;19692;52.998;9.116;2023-12-20T08:57:53;27.27;;;7.10;;
33327;SDS011;19692;52.998;9.116;2023-12-20T09:00:19;27.73;;;7.43;;
33327;SDS011;19692;52.998;9.116;2023-12-20T09:02:45;14.53;;;4.73;;
33327;SDS011;19692;52.998;9.116;2023-12-20T09:05:11;21.00;;;4.77;;
33327;SDS011;19692;52.998;9.116;2023-12-20T09:07:37;19.37;;;4.27;;
33327;SDS011;19692;52.998;9.116;2023-12-20T09:10:03;15.87;;;4.70;;
33327;SDS011;19692;52.998;9.116;2023-12-20T09:12:28;16.30;;;5.33;;
33327;SDS011;19692;52.998;9.116;2023-12-20T09:14:54;15.90;;;4.83;;
33327;SDS011;19692;52.998;9.116;2023-12-20T09:17:20;15.30;;;4.53;;
33327;SDS011;19692;52.998;9.116;2023-12-20T09:19:48;21.13;;;4.87;;
33327;SDS011;19692;52.998;9.116;2023-12-20T09:22:13;19.77;;;4.43;;
33327;SDS011;19692;52.998;9.116;2023-12-20T09:24:39;15.77;;;4.70;;
33327;SDS011;19692;52.998;9.116;2023-12-20T09:27:05;21.20;;;5.53;;
33327;SDS011;19692;52.998;9.116;2023-12-20T09:29:31;16.03;;;5.00;;
33327;SDS011;19692;52.998;9.116;2023-12-20T09:31:57;13.47;;;4.53;;
33327;SDS011;19692;52.998;9.116;2023-12-20T09:34:23;16.80;;;4.80;;
33327;SDS011;19692;52.998;9.116;2023-12-20T09:36:49;14.93;;;5.00;;
33327;SDS011;19692;52.998;9.116;2023-12-20T09:39:16;15.30;;;5.17;;
33327;SDS011;19692;52.998;9.116;2023-12-20T09:41:48;19.73;;;4.97;;
33327;SDS011;19692;52.998;9.116;2023-12-20T09:44:28;14.87;;;4.53;;
33327;SDS011;19692;52.998;9.116;2023-12-20T09:46:54;20.77;;;5.63;;
33327;SDS011;19692;52.998;9.116;2023-12-20T09:49:21;18.43;;;5.37;;
33327;SDS011;19692;52.998;9.116;2023-12-20T09:51:47;14.77;;;4.73;;
33327;SDS011;19692;52.998;9.116;2023-12-20T09:54:16;17.13;;;5.07;;
33327;SDS011;19692;52.998;9.116;2023-12-20T09:56:42;17.67;;;5.60;;
33327;SDS011;19692;52.998;9.116;2023-12-20T09:59:09;16.47;;;4.97;;
33327;SDS011;19692;52.998;9.116;2023-12-20T10:01:35;14.23;;;4.57;;
33327;SDS011;19692;52.998;9.116;2023-12-20T10:04:05;14.00;;;4.20;;
33327;SDS011;19692;52.998;9.116;2023-12-20T10:06:37;12.90;;;4.63;;
33327;SDS011;19692;52.998;9.116;2023-12-20T10:09:07;18.13;;;5.17;;
33327;SDS011;19692;52.998;9.116;2023-12-20T10:11:37;13.10;;;3.67;;
33327;SDS011;19692;52.998;9.116;2023-12-20T10:14:04;7.03;;;2.77;;
33327;SDS011;19692;52.998;9.116;2023-12-20T10:16:31;3.80;;;2.27;;
33327;SDS011;19692;52.998;9.116;2023-12-20T10:18:57;6.10;;;3.03;;
33327;SDS011;19692;52.998;9.116;2023-12-20T10:21:23;5.97;;;2.30;;
33327;SDS011;19692;52.998;9.116;2023-12-20T10:23:51;8.00;;;2.50;;
33327;SDS011;19692;52.998;9.116;2023-12-20T10:26:22;7.70;;;2.20;;
33327;SDS011;19692;52.998;9.116;2023-12-20T10:28:55;9.67;;;5.43;;
33327;SDS011;19692;52.998;9.116;2023-12-20T10:31:32;4.50;;;2.40;;
33327;SDS011;19692;52.998;9.116;2023-12-20T10:33:59;2.37;;;2.00;;
33327;SDS011;19692;52.998;9.116;2023-12-20T10:36:27;5.63;;;2.20;;
33327;SDS011;19692;52.998;9.116;2023-12-20T10:38:55;5.23;;;2.07;;
33327;SDS011;19692;52.998;9.116;2023-12-20T10:41:26;3.13;;;1.37;;
33327;SDS011;19692;52.998;9.116;2023-12-20T10:43:55;2.43;;;1.47;;
33327;SDS011;19692;52.998;9.116;2023-12-20T10:46:26;5.83;;;1.73;;
33327;SDS011;19692;52.998;9.116;2023-12-20T10:48:53;4.10;;;1.70;;
33327;SDS011;19692;52.998;9.116;2023-12-20T10:51:20;3.53;;;1.60;;
33327;SDS011;19692;52.998;9.116;2023-12-20T10:53:47;3.60;;;1.50;;
33327;SDS011;19692;52.998;9.116;2023-12-20T10:56:15;2.00;;;1.50;;
33327;SDS011;19692;52.998;9.116;2023-12-20T10:58:43;5.57;;;2.10;;
33327;SDS011;19692;52.998;9.116;2023-12-20T11:01:12;4.60;;;1.60;;
33327;SDS011;19692;52.998;9.116;2023-12-20T11:03:41;4.17;;;1.70;;
33327;SDS011;19692;52.998;9.116;2023-12-20T11:09:24;5.73;;;2.30;;
33327;SDS011;19692;52.998;9.116;2023-12-20T11:14:52;1.90;;;1.70;;
33327;SDS011;19692;52.998;9.116;2023-12-20T11:17:25;8.53;;;1.90;;
33327;SDS011;19692;52.998;9.116;2023-12-20T11:22:21;3.53;;;1.60;;
33327;SDS011;19692;52.998;9.116;2023-12-20T11:24:47;5.10;;;1.83;;
33327;SDS011;19692;52.998;9.116;2023-12-20T11:27:14;4.87;;;1.90;;
33327;SDS011;19692;52.998;9.116;2023-12-20T11:29:40;4.77;;;1.90;;
33327;SDS011;19692;52.998;9.116;2023-12-20T11:34:50;4.17;;;1.73;;
33327;SDS011;19692;52.998;9.116;2023-12-20T11:37:19;3.33;;;1.63;;
33327;SDS011;19692;52.998;9.116;2023-12-20T11:39:54;4.63;;;2.00;;
33327;SDS011;19692;52.998;9.116;2023-12-20T11:42:21;3.17;;;1.60;;
33327;SDS011;19692;52.998;9.116;2023-12-20T11:44:47;8.83;;;2.00;;
33327;SDS011;19692;52.998;9.116;2023-12-20T11:47:13;4.90;;;1.90;;
33327;SDS011;19692;52.998;9.116;2023-12-20T11:49:40;6.27;;;2.27;;
33327;SDS011;19692;52.998;9.116;2023-12-20T11:52:06;5.63;;;2.60;;
33327;SDS011;19692;52.998;9.116;2023-12-20T11:54:32;7.10;;;2.47;;
33327;SDS011;19692;52.998;9.116;2023-12-20T11:56:58;10.87;;;3.03;;
33327;SDS011;19692;52.998;9.116;2023-12-20T11:59:23;8.87;;;4.23;;
33327;SDS011;19692;52.998;9.116;2023-12-20T12:01:50;8.03;;;2.60;;
33327;SDS011;19692;52.998;9.116;2023-12-20T12:04:16;9.33;;;2.10;;
33327;SDS011;19692;52.998;9.116;2023-12-20T12:06:42;10.93;;;2.47;;
33327;SDS011;19692;52.998;9.116;2023-12-20T12:09:10;7.10;;;2.60;;
33327;SDS011;19692;52.998;9.116;2023-12-20T12:11:36;11.63;;;2.60;;
33327;SDS011;19692;52.998;9.116;2023-12-20T12:14:01;7.63;;;2.57;;
33327;SDS011;19692;52.998;9.116;2023-12-20T12:16:28;6.90;;;2.23;;
33327;SDS011;19692;52.998;9.116;2023-12-20T12:18:55;8.57;;;2.30;;
33327;SDS011;19692;52.998;9.116;2023-12-20T12:21:24;6.73;;;2.37;;
33327;SDS011;19692;52.998;9.116;2023-12-20T12:23:50;7.57;;;2.33;;
33327;SDS011;19692;52.998;9.116;2023-12-20T12:26:16;8.77;;;2.20;;
33327;SDS011;19692;52.998;9.116;2023-12-20T12:28:42;10.80;;;2.70;;
33327;SDS011;19692;52.998;9.116;2023-12-20T12:31:08;9.63;;;2.30;;
33327;SDS011;19692;52.998;9.116;2023-12-20T12:33:40;9.00;;;2.77;;
33327;SDS011;19692;52.998;9.116;2023-12-20T12:36:06;7.53;;;2.90;;
33327;SDS011;19692;52.998;9.116;2023-12-20T12:38:32;12.00;;;2.80;;
33327;SDS011;19692;52.998;9.116;2023-12-20T12:40:59;11.30;;;2.60;;
33327;SDS011;19692;52.998;9.116;2023-12-20T12:43:25;11.17;;;3.00;;
33327;SDS011;19692;52.998;9.116;2023-12-20T12:45:51;12.87;;;2.90;;
33327;SDS011;19692;52.998;9.116;2023-12-20T12:48:18;8.43;;;2.80;;
33327;SDS011;19692;52.998;9.116;2023-12-20T12:50:45;16.70;;;3.17;;
33327;SDS011;19692;52.998;9.116;2023-12-20T12:53:11;12.63;;;2.83;;
33327;SDS011;19692;52.998;9.116;2023-12-20T12:55:37;15.60;;;3.13;;
33327;SDS011;19692;52.998;9.116;2023-12-20T12:58:03;9.53;;;3.40;;
33327;SDS011;19692;52.998;9.116;2023-12-20T13:00:29;14.77;;;3.03;;
33327;SDS011;19692;52.998;9.116;2023-12-20T13:02:55;9.93;;;3.30;;
33327;SDS011;19692;52.998;9.116;2023-12-20T13:05:21;15.03;;;3.43;;
33327;SDS011;19692;52.998;9.116;2023-12-20T13:07:47;12.27;;;3.10;;
33327;SDS011;19692;52.998;9.116;2023-12-20T13:10:12;12.90;;;3.13;;
33327;SDS011;19692;52.998;9.116;2023-12-20T13:12:41;12.00;;;3.07;;
33327;SDS011;19692;52.998;9.116;2023-12-20T13:15:07;12.33;;;3.07;;
33327;SDS011;19692;52.998;9.116;2023-12-20T13:17:34;13.23;;;2.67;;
33327;SDS011;19692;52.998;9.116;2023-12-20T13:19:59;11.53;;;3.63;;
33327;SDS011;19692;52.998;9.116;2023-12-20T13:22:25;12.27;;;2.90;;
33327;SDS011;19692;52.998;9.116;2023-12-20T13:24:51;15.57;;;2.90;;
33327;SDS011;19692;52.998;9.116;2023-12-20T13:27:17;9.87;;;2.70;;
33327;SDS011;19692;52.998;9.116;2023-12-20T13:29:42;12.73;;;3.57;;
33327;SDS011;19692;52.998;9.116;2023-12-20T13:32:08;12.30;;;4.03;;
33327;SDS011;19692;52.998;9.116;2023-12-20T13:34:34;13.30;;;2.90;;
33327;SDS011;19692;52.998;9.116;2023-12-20T13:37:00;11.17;;;3.33;;
33327;SDS011;19692;52.998;9.116;2023-12-20T13:39:26;13.97;;;3.30;;
33327;SDS011;19692;52.998;9.116;2023-12-20T13:41:52;15.67;;;3.10;;
33327;SDS011;19692;52.998;9.116;2023-12-20T13:44:18;9.63;;;3.43;;
33327;SDS011;19692;52.998;9.116;2023-12-20T13:46:43;14.23;;;2.90;;
33327;SDS011;19692;52.998;9.116;2023-12-20T13:49:11;13.43;;;3.73;;
33327;SDS011;19692;52.998;9.116;2023-12-20T13:51:37;13.27;;;2.97;;
33327;SDS011;19692;52.998;9.116;2023-12-20T13:54:03;8.90;;;2.73;;
33327;SDS011;19692;52.998;9.116;2023-12-20T13:56:29;18.63;;;3.37;;
33327;SDS011;19692;52.998;9.116;2023-12-20T13:58:55;11.67;;;2.80;;
33327;SDS011;19692;52.998;9.116;2023-12-20T14:01:21;9.07;;;3.03;;
33327;SDS011;19692;52.998;9.116;2023-12-20T14:03:46;17.03;;;3.47;;
33327;SDS011;19692;52.998;9.116;2023-12-20T14:06:12;13.53;;;4.10;;
33327;SDS011;19692;52.998;9.116;2023-12-20T14:08:40;10.17;;;2.90;;
33327;SDS011;19692;52.998;9.116;2023-12-20T14:11:06;11.63;;;3.40;;
33327;SDS011;19692;52.998;9.116;2023-12-20T14:13:32;10.60;;;3.10;;
33327;SDS011;19692;52.998;9.116;2023-12-20T14:15:58;12.33;;;3.53;;
33327;SDS011;19692;52.998;9.116;2023-12-20T14:18:25;6.03;;;2.60;;
33327;SDS011;19692;52.998;9.116;2023-12-20T14:20:51;11.83;;;3.40;;
33327;SDS011;19692;52.998;9.116;2023-12-20T14:23:16;12.40;;;2.83;;
33327;SDS011;19692;52.998;9.116;2023-12-20T14:25:42;11.70;;;3.27;;
33327;SDS011;19692;52.998;9.116;2023-12-20T14:28:08;11.10;;;3.00;;
33327;SDS011;19692;52.998;9.116;2023-12-20T14:30:35;9.30;;;3.10;;
33327;SDS011;19692;52.998;9.116;2023-12-20T14:33:01;14.00;;;3.20;;
33327;SDS011;19692;52.998;9.116;2023-12-20T14:35:27;13.00;;;3.10;;
33327;SDS011;19692;52.998;9.116;2023-12-20T14:37:53;12.20;;;3.13;;
33327;SDS011;19692;52.998;9.116;2023-12-20T14:40:19;15.73;;;4.20;;
33327;SDS011;19692;52.998;9.116;2023-12-20T14:42:45;12.63;;;3.37;;